EGAA/BFS METAR and TAF weather

Enter ICAO airport designator
Station Type Date Time Source
EGAA METAR 2019/08/19 11:50 UTC NOAA

EGAA 191150Z 25015KT 220V300 9999 VCSH FEW015 SCT021 16/11 Q1009


Station Type Date Time Source
EGAA Decoded METAR 2019/08/19 11:50 UTC NOAA

Station name not available
Aug 19, 2019 - 07:50 AM EDT / 2019.08.19 1150 UTC
Wind: from the WSW (250 degrees) at 17 MPH (15 KT) (direction variable):0
Visibility: greater than 7 mile(s):0
Sky conditions: partly cloudy
Weather: showers in the vicinity
Temperature: 60 F (16 C)
Dew Point: 51 F (11 C)
Relative Humidity: 72%
Pressure (altimeter): 29.80 in. Hg (1009 hPa)
ob: EGAA 191150Z 25015KT 220V300 9999 VCSH FEW015 SCT021 16/11 Q1009
cycle: 12

Station Type Date Time Source
EGAA TAF 2019/08/19 12:09 UTC NOAA

TAF TAF EGAA 191054Z 1912/2012 25012KT 9999 FEW020 SCT040 PROB40
TEMPO 1912/1922 7000 SHRA PROB30
TEMPO 1912/1917 25015G25KT
TEMPO 1922/2003 7000 SHRA SCT008 BKN014

Example: see airport list